createdAt,value
2022-11-20T00:01:31.622Z,-0.80
2022-11-20T00:03:59.342Z,-0.80
2022-11-20T00:06:27.539Z,-0.80
2022-11-20T00:08:59.081Z,-0.80
2022-11-20T00:11:27.537Z,-0.80
2022-11-20T00:13:58.052Z,-0.70
2022-11-20T00:16:27.398Z,-0.70
2022-11-20T00:18:54.747Z,-0.70
2022-11-20T00:21:24.329Z,-0.70
2022-11-20T00:23:54.896Z,-0.60
2022-11-20T00:26:23.456Z,-0.60
2022-11-20T00:28:52.428Z,-0.60
2022-11-20T00:31:19.560Z,-0.60
2022-11-20T00:33:46.965Z,-0.60
2022-11-20T00:36:17.140Z,-0.60
2022-11-20T00:38:44.621Z,-0.60
2022-11-20T00:41:13.927Z,-0.60
2022-11-20T00:43:41.042Z,-0.50
2022-11-20T00:46:19.273Z,-0.60
2022-11-20T00:48:46.560Z,-0.60
2022-11-20T00:51:15.976Z,-0.60
2022-11-20T00:53:42.974Z,-0.60
2022-11-20T00:56:12.919Z,-0.60
2022-11-20T00:58:42.520Z,-0.60
2022-11-20T01:01:10.501Z,-0.70
2022-11-20T01:03:40.364Z,-0.60
2022-11-20T01:06:11.023Z,-0.60
2022-11-20T01:08:38.420Z,-0.60
2022-11-20T01:11:08.518Z,-0.60
2022-11-20T01:13:38.872Z,-0.50
2022-11-20T01:16:07.180Z,-0.60
2022-11-20T01:18:34.160Z,-0.60
2022-11-20T01:21:06.166Z,-0.50
2022-11-20T01:23:34.437Z,-0.50
2022-11-20T01:26:03.568Z,-0.60
2022-11-20T01:28:30.715Z,-0.60
2022-11-20T01:30:57.809Z,-0.50
2022-11-20T01:33:24.908Z,-0.50
2022-11-20T01:35:51.746Z,-0.50
2022-11-20T01:38:18.849Z,-0.50
2022-11-20T01:40:45.658Z,-0.50
2022-11-20T01:43:22.188Z,-0.50
2022-11-20T01:46:16.558Z,-0.50
2022-11-20T01:48:57.070Z,-0.50
2022-11-20T01:52:05.453Z,-0.50
2022-11-20T01:54:51.596Z,-0.50
2022-11-20T01:57:19.608Z,-0.50
2022-11-20T01:59:55.103Z,-0.50
2022-11-20T02:02:22.498Z,-0.50
2022-11-20T02:04:52.701Z,-0.40
2022-11-20T02:07:20.894Z,-0.40
2022-11-20T02:09:48.269Z,-0.30
2022-11-20T02:12:35.488Z,-0.40
2022-11-20T02:15:02.550Z,-0.30
2022-11-20T02:17:29.407Z,-0.40
2022-11-20T02:19:56.612Z,-0.40
2022-11-20T02:22:30.139Z,-0.40
2022-11-20T02:24:59.816Z,-0.40
2022-11-20T02:27:27.647Z,-0.40
2022-11-20T02:30:00.177Z,-0.40
2022-11-20T02:32:28.477Z,-0.30
2022-11-20T02:34:55.637Z,-0.30
2022-11-20T02:37:22.808Z,-0.30
2022-11-20T02:39:52.135Z,-0.30
2022-11-20T02:42:19.564Z,-0.30
2022-11-20T02:44:46.387Z,-0.40
2022-11-20T02:47:13.274Z,-0.40
2022-11-20T02:49:40.010Z,-0.40
2022-11-20T02:52:06.749Z,-0.40
2022-11-20T02:54:33.499Z,-0.40
2022-11-20T02:57:00.261Z,-0.40
2022-11-20T02:59:26.995Z,-0.40
2022-11-20T03:01:53.747Z,-0.30
2022-11-20T03:04:20.854Z,-0.30
2022-11-20T03:06:47.587Z,-0.40
2022-11-20T03:09:14.300Z,-0.30
2022-11-20T03:11:41.070Z,-0.30
2022-11-20T03:14:07.894Z,-0.30
2022-11-20T03:16:34.749Z,-0.30
2022-11-20T03:19:01.965Z,-0.20
2022-11-20T03:21:28.780Z,-0.30
2022-11-20T03:23:55.932Z,-0.30
2022-11-20T03:26:25.884Z,-0.30
2022-11-20T03:28:55.302Z,-0.30
2022-11-20T03:31:25.010Z,-0.30
2022-11-20T03:33:52.154Z,-0.30
2022-11-20T03:36:20.604Z,-0.30
2022-11-20T03:38:48.546Z,-0.30
2022-11-20T03:41:19.277Z,-0.30
2022-11-20T03:43:56.416Z,-0.20
2022-11-20T03:46:24.346Z,-0.30
2022-11-20T03:48:52.172Z,-0.30
2022-11-20T03:51:19.057Z,-0.30
2022-11-20T03:53:47.396Z,-0.30
2022-11-20T03:56:16.378Z,-0.20
2022-11-20T03:58:43.318Z,-0.10
2022-11-20T04:01:15.733Z,-0.10
2022-11-20T04:03:43.139Z,-0.20
2022-11-20T04:06:12.579Z,-0.10
2022-11-20T04:08:39.522Z,-0.10
2022-11-20T04:11:11.604Z,-0.10
2022-11-20T04:13:38.521Z,-0.10
2022-11-20T04:16:16.554Z,-0.10
2022-11-20T04:18:44.278Z,-0.10
2022-11-20T04:21:12.100Z,-0.10
2022-11-20T04:23:38.971Z,-0.10
2022-11-20T04:26:07.890Z,-0.10
2022-11-20T04:28:35.014Z,-0.10
2022-11-20T04:31:10.041Z,0.00
2022-11-20T04:33:37.853Z,0.00
2022-11-20T04:36:13.482Z,0.10
2022-11-20T04:38:40.927Z,0.10
2022-11-20T04:41:09.483Z,0.00
2022-11-20T04:43:36.226Z,0.00
2022-11-20T04:46:03.311Z,0.00
2022-11-20T04:48:31.008Z,0.00
2022-11-20T04:50:58.343Z,0.00
2022-11-20T04:53:25.498Z,0.00
2022-11-20T04:55:52.281Z,0.00
2022-11-20T04:58:19.034Z,-0.10
2022-11-20T05:00:45.907Z,0.00
2022-11-20T05:03:12.701Z,-0.10
2022-11-20T05:05:39.529Z,-0.10
2022-11-20T05:08:06.323Z,0.00
2022-11-20T05:10:33.156Z,0.00
2022-11-20T05:12:59.935Z,0.00
2022-11-20T05:15:26.862Z,0.00
2022-11-20T05:17:54.190Z,0.00
2022-11-20T05:20:21.646Z,0.00
2022-11-20T05:22:48.432Z,-0.10
2022-11-20T05:25:15.333Z,0.00
2022-11-20T05:27:42.418Z,-0.10
2022-11-20T05:30:09.994Z,-0.10
2022-11-20T05:32:36.741Z,-0.10
2022-11-20T05:35:03.790Z,-0.10
2022-11-20T05:37:30.564Z,-0.10
2022-11-20T05:39:57.375Z,-0.10
2022-11-20T05:42:33.153Z,-0.10
2022-11-20T05:45:05.295Z,-0.10
2022-11-20T05:47:36.086Z,-0.10
2022-11-20T05:50:03.458Z,-0.10
2022-11-20T05:52:31.599Z,-0.10
2022-11-20T05:54:58.579Z,-0.10
2022-11-20T05:57:25.530Z,-0.10
2022-11-20T05:59:52.273Z,-0.10
2022-11-20T06:02:19.091Z,-0.10
2022-11-20T06:04:45.886Z,-0.20
2022-11-20T06:07:12.808Z,-0.10
2022-11-20T06:09:39.578Z,-0.10
2022-11-20T06:12:06.871Z,-0.10
2022-11-20T06:14:33.785Z,-0.10
2022-11-20T06:17:01.018Z,-0.10
2022-11-20T06:19:27.952Z,0.00
2022-11-20T06:21:54.692Z,-0.10
2022-11-20T06:24:21.444Z,0.00
2022-11-20T06:26:48.242Z,0.00
2022-11-20T06:29:16.128Z,0.00
2022-11-20T06:31:43.571Z,0.10
2022-11-20T06:34:10.431Z,0.00
2022-11-20T06:36:37.509Z,0.10
2022-11-20T06:39:07.416Z,0.10
2022-11-20T06:41:34.153Z,0.10
2022-11-20T06:44:00.946Z,0.10
2022-11-20T06:46:28.204Z,0.10
2022-11-20T06:48:55.747Z,0.00
2022-11-20T06:51:22.571Z,0.00
2022-11-20T06:53:49.497Z,-0.10
2022-11-20T06:56:16.496Z,-0.10
2022-11-20T06:58:43.209Z,-0.10
2022-11-20T07:01:14.873Z,-0.10
2022-11-20T07:03:42.299Z,-0.10
2022-11-20T07:06:09.877Z,-0.20
2022-11-20T07:08:36.744Z,-0.20
2022-11-20T07:11:07.144Z,-0.20
2022-11-20T07:13:34.284Z,-0.10
2022-11-20T07:16:04.583Z,-0.10
2022-11-20T07:18:31.359Z,-0.10
2022-11-20T07:21:02.016Z,-0.20
2022-11-20T07:23:28.793Z,-0.10
2022-11-20T07:25:55.604Z,-0.10
2022-11-20T07:28:24.957Z,-0.10
2022-11-20T07:30:52.983Z,-0.10
2022-11-20T07:33:20.671Z,-0.10
2022-11-20T07:35:47.628Z,0.00
2022-11-20T07:38:17.598Z,0.00
2022-11-20T07:40:44.384Z,-0.10
2022-11-20T07:43:11.119Z,0.00
2022-11-20T07:45:37.942Z,0.00
2022-11-20T07:48:05.116Z,0.00
2022-11-20T07:50:31.888Z,0.00
2022-11-20T07:53:06.270Z,0.00
2022-11-20T07:55:33.858Z,0.00
2022-11-20T07:58:00.620Z,0.00
2022-11-20T08:00:28.378Z,0.10
2022-11-20T08:02:55.288Z,0.10
2022-11-20T08:05:22.121Z,0.10
2022-11-20T08:07:49.275Z,0.10
2022-11-20T08:10:19.528Z,0.20
2022-11-20T08:13:10.528Z,0.20
2022-11-20T08:15:38.518Z,0.20
2022-11-20T08:18:30.067Z,0.20
2022-11-20T08:20:54.688Z,0.30
2022-11-20T08:23:21.529Z,0.20
2022-11-20T08:25:51.916Z,0.30
2022-11-20T08:28:21.610Z,0.30
2022-11-20T08:30:49.292Z,0.30
2022-11-20T08:33:16.202Z,0.30
2022-11-20T08:35:43.937Z,0.30
2022-11-20T08:38:11.011Z,0.40
2022-11-20T08:40:37.778Z,0.40
2022-11-20T08:43:05.282Z,0.40
2022-11-20T08:45:34.612Z,0.40
2022-11-20T08:48:03.499Z,0.40
2022-11-20T08:50:32.636Z,0.50
2022-11-20T08:53:07.084Z,0.50
2022-11-20T08:55:36.373Z,0.50
2022-11-20T08:58:07.076Z,0.50
2022-11-20T09:00:34.770Z,0.50
2022-11-20T09:03:02.215Z,0.60
2022-11-20T09:05:30.216Z,0.60
2022-11-20T09:08:00.816Z,0.60
2022-11-20T09:10:28.507Z,0.70
2022-11-20T09:12:59.179Z,0.80
2022-11-20T09:15:26.949Z,0.90
2022-11-20T09:17:56.828Z,0.90
2022-11-20T09:20:23.997Z,0.90
2022-11-20T09:30:26.151Z,1.00
2022-11-20T09:32:52.988Z,1.00
2022-11-20T09:35:19.928Z,1.00
2022-11-20T09:37:46.840Z,1.10
2022-11-20T09:40:30.454Z,1.10
2022-11-20T09:43:06.166Z,1.10
2022-11-20T09:46:18.674Z,1.10
2022-11-20T09:48:51.980Z,1.10
2022-11-20T09:51:36.907Z,1.10
2022-11-20T09:54:20.111Z,1.10
2022-11-20T09:57:25.512Z,1.10
2022-11-20T10:00:00.446Z,1.10
2022-11-20T10:02:39.896Z,1.10
2022-11-20T10:05:40.469Z,1.10
2022-11-20T10:08:41.682Z,1.20
2022-11-20T10:11:26.875Z,1.20
2022-11-20T10:14:22.742Z,1.20
2022-11-20T10:16:57.443Z,1.20
2022-11-20T10:19:40.539Z,1.30
2022-11-20T10:22:07.296Z,1.30
2022-11-20T10:24:56.222Z,1.30
2022-11-20T10:27:47.263Z,1.30
2022-11-20T10:30:16.812Z,1.30
2022-11-20T10:33:05.886Z,1.40
2022-11-20T10:35:38.227Z,1.50
2022-11-20T10:38:16.261Z,1.50
2022-11-20T10:40:45.758Z,1.40
2022-11-20T10:43:34.666Z,1.40
2022-11-20T10:46:06.693Z,1.30
2022-11-20T10:48:34.298Z,1.30
2022-11-20T10:51:27.148Z,1.30
2022-11-20T10:54:24.778Z,1.40
2022-11-20T10:56:54.332Z,1.30
2022-11-20T10:59:36.328Z,1.30
2022-11-20T11:02:15.159Z,1.40
2022-11-20T11:04:53.794Z,1.40
2022-11-20T11:07:30.273Z,1.40
2022-11-20T11:09:57.922Z,1.40
2022-11-20T11:12:29.818Z,1.40
2022-11-20T11:14:58.644Z,1.40
2022-11-20T11:17:35.314Z,1.40
2022-11-20T11:20:12.526Z,1.30
2022-11-20T11:22:58.215Z,1.30
2022-11-20T11:25:34.658Z,1.30
2022-11-20T11:28:21.432Z,1.30
2022-11-20T11:30:50.278Z,1.40
2022-11-20T11:33:26.400Z,1.40
2022-11-20T11:35:58.393Z,1.50
2022-11-20T11:38:39.033Z,1.50
2022-11-20T11:41:08.506Z,1.50
2022-11-20T11:43:56.611Z,1.60
2022-11-20T11:46:34.759Z,1.60
2022-11-20T11:49:23.225Z,1.60
2022-11-20T11:52:09.069Z,1.70
2022-11-20T11:54:55.245Z,1.70
2022-11-20T11:57:38.939Z,1.70
2022-11-20T12:00:09.772Z,1.70
2022-11-20T12:02:45.522Z,1.70
2022-11-20T12:05:33.081Z,1.70
2022-11-20T12:08:41.886Z,1.70
2022-11-20T12:11:11.698Z,1.70
2022-11-20T12:13:59.643Z,1.80
2022-11-20T12:16:26.506Z,1.70
2022-11-20T12:18:54.098Z,1.70
2022-11-20T12:21:40.190Z,1.80
2022-11-20T12:24:30.115Z,1.80
2022-11-20T12:27:24.450Z,1.70
2022-11-20T12:30:28.237Z,1.70
2022-11-20T12:33:14.655Z,1.70
2022-11-20T12:36:08.886Z,1.70
2022-11-20T12:39:13.387Z,1.70
2022-11-20T12:42:44.188Z,1.70
2022-11-20T12:45:29.973Z,1.70
2022-11-20T12:48:15.754Z,1.70
2022-11-20T12:51:13.996Z,1.70
2022-11-20T12:53:56.213Z,1.70
2022-11-20T12:56:29.180Z,1.70
2022-11-20T12:59:28.329Z,1.70
2022-11-20T13:02:16.906Z,1.70
2022-11-20T13:04:58.821Z,1.70
2022-11-20T13:07:27.141Z,1.70
2022-11-20T13:09:55.327Z,1.60
2022-11-20T13:12:34.251Z,1.60
2022-11-20T13:15:19.115Z,1.60
2022-11-20T13:18:03.740Z,1.60
2022-11-20T13:20:32.385Z,1.60
2022-11-20T13:22:59.819Z,1.60
2022-11-20T13:25:29.631Z,1.60
2022-11-20T13:27:58.953Z,1.60
2022-11-20T13:30:30.149Z,1.60
2022-11-20T13:33:05.222Z,1.60
2022-11-20T13:35:38.204Z,1.60
2022-11-20T13:38:15.930Z,1.50
2022-11-20T13:40:56.149Z,1.50
2022-11-20T13:43:41.778Z,1.50
2022-11-20T13:46:10.682Z,1.50
2022-11-20T13:48:45.879Z,1.40
2022-11-20T13:51:19.076Z,1.40
2022-11-20T13:54:18.847Z,1.40
2022-11-20T13:57:10.511Z,1.40
2022-11-20T13:59:49.819Z,1.40
2022-11-20T14:02:19.484Z,1.40
2022-11-20T14:04:50.242Z,1.40
2022-11-20T14:07:19.749Z,1.40
2022-11-20T14:09:57.893Z,1.30
2022-11-20T14:12:33.789Z,1.30
2022-11-20T14:15:00.947Z,1.30
2022-11-20T14:17:34.073Z,1.30
2022-11-20T14:20:08.479Z,1.30
2022-11-20T14:22:35.292Z,1.30
2022-11-20T14:25:19.631Z,1.30
2022-11-20T14:27:51.991Z,1.30
2022-11-20T14:30:22.650Z,1.20
2022-11-20T14:32:50.500Z,1.20
2022-11-20T14:35:35.154Z,1.20
2022-11-20T14:38:03.438Z,1.20
2022-11-20T14:40:38.631Z,1.20
2022-11-20T14:43:29.036Z,1.20
2022-11-20T14:46:04.449Z,1.20
2022-11-20T14:48:36.037Z,1.10
2022-11-20T14:51:02.876Z,1.10
2022-11-20T14:53:29.681Z,1.10
2022-11-20T14:56:02.192Z,1.10
2022-11-20T14:58:30.722Z,1.00
2022-11-20T15:01:03.567Z,1.00
2022-11-20T15:03:41.832Z,1.10
2022-11-20T15:06:13.051Z,1.10
2022-11-20T15:08:39.943Z,1.10
2022-11-20T15:11:19.220Z,1.00
2022-11-20T15:13:46.603Z,1.10
2022-11-20T15:16:20.672Z,1.10
2022-11-20T15:18:48.390Z,1.00
2022-11-20T15:21:20.207Z,1.00
2022-11-20T15:23:46.985Z,1.00
2022-11-20T15:26:19.792Z,1.10
2022-11-20T15:28:48.855Z,1.10
2022-11-20T15:31:18.067Z,1.10
2022-11-20T15:33:44.977Z,1.10
2022-11-20T15:36:11.804Z,1.10
2022-11-20T15:38:38.663Z,1.10
2022-11-20T15:41:06.294Z,1.00
2022-11-20T15:43:33.166Z,1.00
2022-11-20T15:46:07.004Z,1.00
2022-11-20T15:48:44.640Z,1.00
2022-11-20T15:51:24.588Z,1.00
2022-11-20T15:53:51.360Z,1.00
2022-11-20T15:56:18.360Z,0.90
2022-11-20T15:58:45.164Z,1.00
2022-11-20T16:01:18.373Z,1.00
2022-11-20T16:03:45.691Z,0.90
2022-11-20T16:06:12.511Z,0.90
2022-11-20T16:08:39.371Z,0.90
2022-11-20T16:11:06.375Z,0.90
2022-11-20T16:13:52.331Z,0.90
2022-11-20T16:16:26.864Z,0.80
2022-11-20T16:18:53.610Z,0.80
2022-11-20T16:21:20.418Z,0.80
2022-11-20T16:23:47.330Z,0.70
2022-11-20T16:26:17.882Z,0.70
2022-11-20T16:28:44.787Z,0.70
2022-11-20T16:31:17.428Z,0.70
2022-11-20T16:33:49.744Z,0.70
2022-11-20T16:36:16.823Z,0.70
2022-11-20T16:38:43.668Z,0.70
2022-11-20T16:41:14.584Z,0.80
2022-11-20T16:43:49.842Z,0.80
2022-11-20T16:46:18.807Z,0.80
2022-11-20T16:48:46.020Z,0.80
2022-11-20T16:51:14.803Z,0.70
2022-11-20T16:53:42.834Z,0.80
2022-11-20T16:56:18.047Z,0.70
2022-11-20T16:58:45.751Z,0.70
2022-11-20T17:01:15.422Z,0.60
2022-11-20T17:03:44.179Z,0.60
2022-11-20T17:06:22.361Z,0.60
2022-11-20T17:08:49.334Z,0.50
2022-11-20T17:11:18.704Z,0.50
2022-11-20T17:13:46.456Z,0.50
2022-11-20T17:16:19.170Z,0.50
2022-11-20T17:18:46.607Z,0.40
2022-11-20T17:21:13.996Z,0.40
2022-11-20T17:23:42.434Z,0.40
2022-11-20T17:26:09.197Z,0.40
2022-11-20T17:28:37.162Z,0.40
2022-11-20T17:31:06.892Z,0.40
2022-11-20T17:33:36.048Z,0.40
2022-11-20T17:36:04.032Z,0.40
2022-11-20T17:38:30.978Z,0.40
2022-11-20T17:41:06.136Z,0.30
2022-11-20T17:43:35.930Z,0.30
2022-11-20T17:46:16.631Z,0.20
2022-11-20T17:48:44.451Z,0.10
2022-11-20T17:51:22.931Z,0.20
2022-11-20T17:53:52.134Z,0.20
2022-11-20T17:56:38.022Z,0.20
2022-11-20T17:59:06.414Z,0.10
2022-11-20T18:01:33.330Z,0.00
2022-11-20T18:04:00.204Z,0.00
2022-11-20T18:06:28.797Z,0.00
2022-11-20T18:08:57.706Z,0.00
2022-11-20T18:11:28.398Z,-0.10
2022-11-20T18:14:17.787Z,-0.10
2022-11-20T18:16:47.508Z,-0.10
2022-11-20T18:19:23.420Z,-0.10
2022-11-20T18:21:50.210Z,-0.10
2022-11-20T18:24:20.336Z,-0.20
2022-11-20T18:26:52.113Z,-0.20
2022-11-20T18:29:21.791Z,-0.10
2022-11-20T18:31:53.171Z,-0.10
2022-11-20T18:34:41.001Z,-0.20
2022-11-20T18:43:53.549Z,-0.30
2022-11-20T18:46:21.994Z,-0.30
2022-11-20T18:48:48.801Z,-0.30
2022-11-20T18:51:17.100Z,-0.30
2022-11-20T18:53:47.399Z,-0.30
2022-11-20T18:56:14.751Z,-0.30
2022-11-20T18:58:41.914Z,-0.30
2022-11-20T19:01:08.966Z,-0.30
2022-11-20T19:03:35.818Z,-0.30
2022-11-20T19:06:02.685Z,-0.30
2022-11-20T19:08:29.622Z,-0.30
2022-11-20T19:11:06.973Z,-0.40
2022-11-20T19:13:34.596Z,-0.30
2022-11-20T19:16:17.848Z,-0.40
2022-11-20T19:18:45.164Z,-0.40
2022-11-20T19:21:17.522Z,-0.40
2022-11-20T19:23:47.997Z,-0.40
2022-11-20T19:26:15.346Z,-0.40
2022-11-20T19:28:42.187Z,-0.40
2022-11-20T19:31:14.531Z,-0.40
2022-11-20T19:33:42.118Z,-0.40
2022-11-20T19:36:26.303Z,-0.40
2022-11-20T19:38:54.180Z,-0.40
2022-11-20T19:41:29.119Z,-0.40
2022-11-20T19:44:00.940Z,-0.40
2022-11-20T19:46:29.241Z,-0.40
2022-11-20T19:48:56.585Z,-0.40
2022-11-20T19:51:31.793Z,-0.40
2022-11-20T19:53:59.550Z,-0.40
2022-11-20T19:56:28.602Z,-0.40
2022-11-20T19:58:56.700Z,-0.30
2022-11-20T20:01:26.689Z,-0.30
2022-11-20T20:03:55.140Z,-0.30
2022-11-20T20:06:25.356Z,-0.30
2022-11-20T20:09:12.367Z,-0.40
2022-11-20T20:11:40.286Z,-0.30
2022-11-20T20:14:10.155Z,-0.40
2022-11-20T20:16:37.184Z,-0.40
2022-11-20T20:19:05.183Z,-0.30
2022-11-20T20:21:34.215Z,-0.30
2022-11-20T20:24:01.417Z,-0.30
2022-11-20T20:26:30.374Z,-0.30
2022-11-20T20:28:57.681Z,-0.30
2022-11-20T20:31:27.380Z,-0.30
2022-11-20T20:33:54.765Z,-0.30
2022-11-20T20:36:22.988Z,-0.30
2022-11-20T20:38:59.614Z,-0.30
2022-11-20T20:41:26.775Z,-0.30
2022-11-20T20:44:12.461Z,-0.20
2022-11-20T20:46:40.122Z,-0.20
2022-11-20T20:49:07.458Z,-0.20
2022-11-20T20:51:35.113Z,-0.10
2022-11-20T20:54:01.957Z,-0.10
2022-11-20T20:56:28.764Z,-0.10
2022-11-20T20:58:55.503Z,-0.10
2022-11-20T21:01:23.062Z,-0.10
2022-11-20T21:03:49.966Z,-0.10
2022-11-20T21:06:16.837Z,-0.10
2022-11-20T21:08:44.645Z,0.00
2022-11-20T21:11:17.272Z,0.00
2022-11-20T21:13:45.856Z,0.00
2022-11-20T21:16:14.914Z,0.00
2022-11-20T21:18:42.238Z,-0.10
2022-11-20T21:21:31.524Z,0.00
2022-11-20T21:23:58.329Z,0.00
2022-11-20T21:26:25.578Z,0.00
2022-11-20T21:28:52.767Z,-0.10
2022-11-20T21:31:25.083Z,-0.10
2022-11-20T21:33:53.172Z,-0.10
2022-11-20T21:36:22.847Z,0.00
2022-11-20T21:38:51.983Z,-0.10
2022-11-20T21:41:19.170Z,-0.10
2022-11-20T21:43:51.521Z,-0.10
2022-11-20T21:46:25.850Z,-0.10
2022-11-20T21:48:52.808Z,-0.10
2022-11-20T21:51:22.121Z,-0.10
2022-11-20T21:53:49.855Z,-0.10
2022-11-20T21:56:20.762Z,-0.10
2022-11-20T21:58:48.818Z,-0.20
2022-11-20T22:01:21.812Z,-0.10
2022-11-20T22:03:53.600Z,-0.20
2022-11-20T22:06:21.414Z,-0.10
2022-11-20T22:08:48.975Z,-0.20
2022-11-20T22:11:18.199Z,-0.20
2022-11-20T22:14:03.835Z,-0.20
2022-11-20T22:16:31.224Z,-0.20
2022-11-20T22:18:58.655Z,-0.20
2022-11-20T22:21:27.641Z,-0.20
2022-11-20T22:23:55.264Z,-0.20
2022-11-20T22:26:37.348Z,-0.20
2022-11-20T22:29:06.633Z,-0.20
2022-11-20T22:31:33.486Z,-0.20
2022-11-20T22:34:02.272Z,-0.20
2022-11-20T22:36:31.130Z,-0.20
2022-11-20T22:38:58.677Z,-0.20
2022-11-20T22:41:29.356Z,-0.10
2022-11-20T22:44:07.216Z,-0.20
2022-11-20T22:46:36.434Z,-0.10
2022-11-20T22:49:06.174Z,-0.20
2022-11-20T22:51:35.814Z,-0.10
2022-11-20T22:54:03.692Z,-0.10
2022-11-20T22:56:31.165Z,0.00
2022-11-20T22:58:58.169Z,0.00
2022-11-20T23:01:31.602Z,0.00
2022-11-20T23:04:01.223Z,0.10
2022-11-20T23:06:28.565Z,0.00
2022-11-20T23:08:56.211Z,0.00
2022-11-20T23:11:28.545Z,0.00
2022-11-20T23:14:07.056Z,0.00
2022-11-20T23:16:35.039Z,0.00
2022-11-20T23:19:10.641Z,0.10
2022-11-20T23:21:39.159Z,0.00
2022-11-20T23:24:06.850Z,0.10
2022-11-20T23:26:36.422Z,0.10
2022-11-20T23:29:04.604Z,0.10
2022-11-20T23:31:33.698Z,0.10
2022-11-20T23:34:00.783Z,0.10
2022-11-20T23:36:27.710Z,0.10
2022-11-20T23:38:54.449Z,0.10
2022-11-20T23:41:21.250Z,0.10
2022-11-20T23:43:48.224Z,0.00
2022-11-20T23:46:16.821Z,0.00
2022-11-20T23:48:45.170Z,0.10
2022-11-20T23:51:12.567Z,0.00
2022-11-20T23:53:39.389Z,0.00
2022-11-20T23:56:06.459Z,0.00
2022-11-20T23:58:38.336Z,0.00
